sensor_id;sensor_type;location;lat;lon;timestamp;P1;durP1;ratioP1;P2;durP2;ratioP2
18933;SDS011;9599;53.706;10.384;2023-05-10T00:00:30;22.90;;;21.17;;
18933;SDS011;9599;53.706;10.384;2023-05-10T00:02:58;21.07;;;19.63;;
18933;SDS011;9599;53.706;10.384;2023-05-10T00:05:28;21.80;;;20.47;;
18933;SDS011;9599;53.706;10.384;2023-05-10T00:07:56;22.57;;;20.77;;
18933;SDS011;9599;53.706;10.384;2023-05-10T00:10:24;22.33;;;20.90;;
18933;SDS011;9599;53.706;10.384;2023-05-10T00:12:52;22.90;;;21.30;;
18933;SDS011;9599;53.706;10.384;2023-05-10T00:15:20;22.13;;;20.60;;
18933;SDS011;9599;53.706;10.384;2023-05-10T00:17:48;23.57;;;21.93;;
18933;SDS011;9599;53.706;10.384;2023-05-10T00:20:16;22.50;;;21.07;;
18933;SDS011;9599;53.706;10.384;2023-05-10T00:22:46;22.70;;;21.10;;
18933;SDS011;9599;53.706;10.384;2023-05-10T00:25:14;22.47;;;20.97;;
18933;SDS011;9599;53.706;10.384;2023-05-10T00:27:42;21.43;;;20.03;;
18933;SDS011;9599;53.706;10.384;2023-05-10T00:30:10;21.27;;;20.07;;
18933;SDS011;9599;53.706;10.384;2023-05-10T00:32:38;21.63;;;20.17;;
18933;SDS011;9599;53.706;10.384;2023-05-10T00:35:07;22.70;;;21.30;;
18933;SDS011;9599;53.706;10.384;2023-05-10T00:37:35;22.83;;;21.33;;
18933;SDS011;9599;53.706;10.384;2023-05-10T00:40:06;22.50;;;20.93;;
18933;SDS011;9599;53.706;10.384;2023-05-10T00:42:34;22.60;;;21.07;;
18933;SDS011;9599;53.706;10.384;2023-05-10T00:45:02;21.90;;;20.33;;
18933;SDS011;9599;53.706;10.384;2023-05-10T00:47:31;21.67;;;20.20;;
18933;SDS011;9599;53.706;10.384;2023-05-10T00:49:59;21.33;;;20.03;;
18933;SDS011;9599;53.706;10.384;2023-05-10T00:52:28;20.70;;;19.30;;
18933;SDS011;9599;53.706;10.384;2023-05-10T00:54:57;23.30;;;21.80;;
18933;SDS011;9599;53.706;10.384;2023-05-10T00:57:27;23.00;;;20.83;;
18933;SDS011;9599;53.706;10.384;2023-05-10T00:59:55;21.23;;;19.93;;
18933;SDS011;9599;53.706;10.384;2023-05-10T01:02:24;21.20;;;19.77;;
18933;SDS011;9599;53.706;10.384;2023-05-10T01:04:52;23.27;;;21.77;;
18933;SDS011;9599;53.706;10.384;2023-05-10T01:07:20;20.13;;;18.83;;
18933;SDS011;9599;53.706;10.384;2023-05-10T01:09:48;22.13;;;20.70;;
18933;SDS011;9599;53.706;10.384;2023-05-10T01:12:16;21.40;;;20.10;;
18933;SDS011;9599;53.706;10.384;2023-05-10T01:14:46;21.83;;;20.43;;
18933;SDS011;9599;53.706;10.384;2023-05-10T01:17:14;21.33;;;19.73;;
18933;SDS011;9599;53.706;10.384;2023-05-10T01:19:43;21.27;;;19.97;;
18933;SDS011;9599;53.706;10.384;2023-05-10T01:22:15;21.67;;;20.30;;
18933;SDS011;9599;53.706;10.384;2023-05-10T01:25:11;23.03;;;21.53;;
18933;SDS011;9599;53.706;10.384;2023-05-10T01:27:55;20.37;;;19.07;;
18933;SDS011;9599;53.706;10.384;2023-05-10T01:30:53;20.10;;;18.80;;
18933;SDS011;9599;53.706;10.384;2023-05-10T01:33:38;22.37;;;21.00;;
18933;SDS011;9599;53.706;10.384;2023-05-10T01:36:13;21.70;;;20.10;;
18933;SDS011;9599;53.706;10.384;2023-05-10T01:38:53;22.27;;;20.77;;
18933;SDS011;9599;53.706;10.384;2023-05-10T01:41:28;22.27;;;20.77;;
18933;SDS011;9599;53.706;10.384;2023-05-10T01:44:07;21.80;;;20.20;;
18933;SDS011;9599;53.706;10.384;2023-05-10T01:46:41;22.43;;;21.13;;
18933;SDS011;9599;53.706;10.384;2023-05-10T01:49:12;21.50;;;20.07;;
18933;SDS011;9599;53.706;10.384;2023-05-10T01:51:47;21.00;;;19.70;;
18933;SDS011;9599;53.706;10.384;2023-05-10T01:54:21;21.37;;;19.97;;
18933;SDS011;9599;53.706;10.384;2023-05-10T01:56:52;21.30;;;19.80;;
18933;SDS011;9599;53.706;10.384;2023-05-10T01:59:27;21.87;;;20.47;;
18933;SDS011;9599;53.706;10.384;2023-05-10T02:01:58;21.77;;;20.27;;
18933;SDS011;9599;53.706;10.384;2023-05-10T02:04:29;22.27;;;20.80;;
18933;SDS011;9599;53.706;10.384;2023-05-10T02:06:59;21.70;;;20.40;;
18933;SDS011;9599;53.706;10.384;2023-05-10T02:09:27;22.60;;;21.20;;
18933;SDS011;9599;53.706;10.384;2023-05-10T02:11:57;20.80;;;19.30;;
18933;SDS011;9599;53.706;10.384;2023-05-10T02:14:27;23.17;;;21.63;;
18933;SDS011;9599;53.706;10.384;2023-05-10T02:16:56;21.80;;;20.20;;
18933;SDS011;9599;53.706;10.384;2023-05-10T02:19:26;25.03;;;23.37;;
18933;SDS011;9599;53.706;10.384;2023-05-10T02:21:57;23.13;;;21.63;;
18933;SDS011;9599;53.706;10.384;2023-05-10T02:24:27;22.20;;;20.43;;
18933;SDS011;9599;53.706;10.384;2023-05-10T02:26:59;21.17;;;19.77;;
18933;SDS011;9599;53.706;10.384;2023-05-10T02:29:29;21.10;;;19.60;;
18933;SDS011;9599;53.706;10.384;2023-05-10T02:31:59;21.93;;;20.63;;
18933;SDS011;9599;53.706;10.384;2023-05-10T02:34:29;21.87;;;20.27;;
18933;SDS011;9599;53.706;10.384;2023-05-10T02:37:00;22.83;;;21.07;;
18933;SDS011;9599;53.706;10.384;2023-05-10T02:39:31;21.23;;;19.87;;
18933;SDS011;9599;53.706;10.384;2023-05-10T02:42:00;23.23;;;21.83;;
18933;SDS011;9599;53.706;10.384;2023-05-10T02:44:30;21.23;;;19.77;;
18933;SDS011;9599;53.706;10.384;2023-05-10T02:46:58;22.50;;;21.07;;
18933;SDS011;9599;53.706;10.384;2023-05-10T02:49:28;22.10;;;20.67;;
18933;SDS011;9599;53.706;10.384;2023-05-10T02:51:57;21.63;;;20.23;;
18933;SDS011;9599;53.706;10.384;2023-05-10T02:54:29;21.87;;;20.43;;
18933;SDS011;9599;53.706;10.384;2023-05-10T02:57:00;23.67;;;22.17;;
18933;SDS011;9599;53.706;10.384;2023-05-10T02:59:33;24.40;;;22.87;;
18933;SDS011;9599;53.706;10.384;2023-05-10T03:02:01;23.17;;;21.40;;
18933;SDS011;9599;53.706;10.384;2023-05-10T03:04:30;24.00;;;22.33;;
18933;SDS011;9599;53.706;10.384;2023-05-10T03:07:00;24.93;;;23.27;;
18933;SDS011;9599;53.706;10.384;2023-05-10T03:09:28;24.43;;;22.87;;
18933;SDS011;9599;53.706;10.384;2023-05-10T03:12:00;23.83;;;22.20;;
18933;SDS011;9599;53.706;10.384;2023-05-10T03:14:42;24.30;;;22.77;;
18933;SDS011;9599;53.706;10.384;2023-05-10T03:17:17;25.47;;;23.70;;
18933;SDS011;9599;53.706;10.384;2023-05-10T03:19:53;24.10;;;22.40;;
18933;SDS011;9599;53.706;10.384;2023-05-10T03:22:30;24.10;;;22.57;;
18933;SDS011;9599;53.706;10.384;2023-05-10T03:24:59;23.67;;;22.27;;
18933;SDS011;9599;53.706;10.384;2023-05-10T03:27:32;25.47;;;23.73;;
18933;SDS011;9599;53.706;10.384;2023-05-10T03:30:03;23.50;;;21.90;;
18933;SDS011;9599;53.706;10.384;2023-05-10T03:32:35;25.97;;;24.27;;
18933;SDS011;9599;53.706;10.384;2023-05-10T03:35:05;25.40;;;23.80;;
18933;SDS011;9599;53.706;10.384;2023-05-10T03:37:36;25.63;;;24.13;;
18933;SDS011;9599;53.706;10.384;2023-05-10T03:40:05;24.40;;;22.93;;
18933;SDS011;9599;53.706;10.384;2023-05-10T03:42:36;25.40;;;23.80;;
18933;SDS011;9599;53.706;10.384;2023-05-10T03:45:05;26.57;;;24.87;;
18933;SDS011;9599;53.706;10.384;2023-05-10T03:47:34;26.00;;;24.30;;
18933;SDS011;9599;53.706;10.384;2023-05-10T03:50:05;25.67;;;23.97;;
18933;SDS011;9599;53.706;10.384;2023-05-10T03:52:33;26.57;;;24.67;;
18933;SDS011;9599;53.706;10.384;2023-05-10T03:55:05;26.10;;;24.50;;
18933;SDS011;9599;53.706;10.384;2023-05-10T03:57:34;26.03;;;24.43;;
18933;SDS011;9599;53.706;10.384;2023-05-10T04:00:02;25.87;;;24.17;;
18933;SDS011;9599;53.706;10.384;2023-05-10T04:02:39;25.87;;;24.20;;
18933;SDS011;9599;53.706;10.384;2023-05-10T04:05:13;25.17;;;23.67;;
18933;SDS011;9599;53.706;10.384;2023-05-10T04:07:42;25.40;;;23.70;;
18933;SDS011;9599;53.706;10.384;2023-05-10T04:10:11;26.07;;;24.37;;
18933;SDS011;9599;53.706;10.384;2023-05-10T04:12:39;25.90;;;24.40;;
18933;SDS011;9599;53.706;10.384;2023-05-10T04:15:08;24.37;;;22.77;;
18933;SDS011;9599;53.706;10.384;2023-05-10T04:17:36;24.20;;;22.67;;
18933;SDS011;9599;53.706;10.384;2023-05-10T04:20:05;23.80;;;22.30;;
18933;SDS011;9599;53.706;10.384;2023-05-10T04:22:33;24.30;;;22.80;;
18933;SDS011;9599;53.706;10.384;2023-05-10T04:25:03;24.03;;;22.10;;
18933;SDS011;9599;53.706;10.384;2023-05-10T04:27:32;23.93;;;22.37;;
18933;SDS011;9599;53.706;10.384;2023-05-10T04:30:00;23.63;;;21.90;;
18933;SDS011;9599;53.706;10.384;2023-05-10T04:32:28;24.40;;;22.70;;
18933;SDS011;9599;53.706;10.384;2023-05-10T04:34:57;22.73;;;21.17;;
18933;SDS011;9599;53.706;10.384;2023-05-10T04:37:25;23.03;;;21.47;;
18933;SDS011;9599;53.706;10.384;2023-05-10T04:39:52;25.13;;;23.30;;
18933;SDS011;9599;53.706;10.384;2023-05-10T04:42:22;24.77;;;23.20;;
18933;SDS011;9599;53.706;10.384;2023-05-10T04:44:51;23.23;;;21.67;;
18933;SDS011;9599;53.706;10.384;2023-05-10T04:47:19;24.07;;;22.57;;
18933;SDS011;9599;53.706;10.384;2023-05-10T04:49:47;22.37;;;20.90;;
18933;SDS011;9599;53.706;10.384;2023-05-10T04:52:15;24.00;;;22.50;;
18933;SDS011;9599;53.706;10.384;2023-05-10T04:54:44;23.40;;;21.83;;
18933;SDS011;9599;53.706;10.384;2023-05-10T04:57:12;23.93;;;21.93;;
18933;SDS011;9599;53.706;10.384;2023-05-10T04:59:41;24.50;;;22.73;;
18933;SDS011;9599;53.706;10.384;2023-05-10T05:02:09;24.30;;;22.80;;
18933;SDS011;9599;53.706;10.384;2023-05-10T05:04:37;22.07;;;20.67;;
18933;SDS011;9599;53.706;10.384;2023-05-10T05:07:06;23.30;;;21.73;;
18933;SDS011;9599;53.706;10.384;2023-05-10T05:09:33;23.90;;;22.10;;
18933;SDS011;9599;53.706;10.384;2023-05-10T05:12:02;23.63;;;22.20;;
18933;SDS011;9599;53.706;10.384;2023-05-10T05:14:30;23.77;;;22.17;;
18933;SDS011;9599;53.706;10.384;2023-05-10T05:16:59;24.47;;;22.67;;
18933;SDS011;9599;53.706;10.384;2023-05-10T05:19:28;24.17;;;22.50;;
18933;SDS011;9599;53.706;10.384;2023-05-10T05:21:58;24.63;;;23.13;;
18933;SDS011;9599;53.706;10.384;2023-05-10T05:24:26;23.37;;;21.77;;
18933;SDS011;9599;53.706;10.384;2023-05-10T05:26:53;23.47;;;22.00;;
18933;SDS011;9599;53.706;10.384;2023-05-10T05:29:21;25.00;;;23.40;;
18933;SDS011;9599;53.706;10.384;2023-05-10T05:31:49;23.57;;;22.00;;
18933;SDS011;9599;53.706;10.384;2023-05-10T05:34:22;23.03;;;21.43;;
18933;SDS011;9599;53.706;10.384;2023-05-10T05:36:50;23.13;;;21.63;;
18933;SDS011;9599;53.706;10.384;2023-05-10T05:39:18;23.53;;;21.97;;
18933;SDS011;9599;53.706;10.384;2023-05-10T05:41:46;22.83;;;21.43;;
18933;SDS011;9599;53.706;10.384;2023-05-10T05:44:14;22.87;;;21.07;;
18933;SDS011;9599;53.706;10.384;2023-05-10T05:46:42;24.07;;;21.87;;
18933;SDS011;9599;53.706;10.384;2023-05-10T05:49:10;25.17;;;23.47;;
18933;SDS011;9599;53.706;10.384;2023-05-10T05:51:39;22.90;;;21.50;;
18933;SDS011;9599;53.706;10.384;2023-05-10T05:54:07;25.47;;;23.87;;
18933;SDS011;9599;53.706;10.384;2023-05-10T05:56:35;26.13;;;24.57;;
18933;SDS011;9599;53.706;10.384;2023-05-10T05:59:04;26.73;;;25.10;;
18933;SDS011;9599;53.706;10.384;2023-05-10T06:01:33;28.17;;;26.37;;
18933;SDS011;9599;53.706;10.384;2023-05-10T06:04:01;27.40;;;25.67;;
18933;SDS011;9599;53.706;10.384;2023-05-10T06:06:29;28.00;;;26.23;;
18933;SDS011;9599;53.706;10.384;2023-05-10T06:08:59;25.60;;;24.13;;
18933;SDS011;9599;53.706;10.384;2023-05-10T06:11:27;25.03;;;23.20;;
18933;SDS011;9599;53.706;10.384;2023-05-10T06:13:56;24.07;;;22.63;;
18933;SDS011;9599;53.706;10.384;2023-05-10T06:16:25;23.50;;;22.10;;
18933;SDS011;9599;53.706;10.384;2023-05-10T06:18:53;24.80;;;23.10;;
18933;SDS011;9599;53.706;10.384;2023-05-10T06:21:21;25.20;;;23.70;;
18933;SDS011;9599;53.706;10.384;2023-05-10T06:23:49;25.20;;;23.63;;
18933;SDS011;9599;53.706;10.384;2023-05-10T06:26:18;25.73;;;24.23;;
18933;SDS011;9599;53.706;10.384;2023-05-10T06:28:47;26.37;;;24.57;;
18933;SDS011;9599;53.706;10.384;2023-05-10T06:31:15;25.87;;;24.37;;
18933;SDS011;9599;53.706;10.384;2023-05-10T06:33:43;27.47;;;25.70;;
18933;SDS011;9599;53.706;10.384;2023-05-10T06:36:12;27.03;;;25.20;;
18933;SDS011;9599;53.706;10.384;2023-05-10T06:38:40;27.23;;;25.60;;
18933;SDS011;9599;53.706;10.384;2023-05-10T06:41:08;27.70;;;26.00;;
18933;SDS011;9599;53.706;10.384;2023-05-10T06:43:37;27.30;;;25.50;;
18933;SDS011;9599;53.706;10.384;2023-05-10T06:46:08;30.23;;;28.43;;
18933;SDS011;9599;53.706;10.384;2023-05-10T06:48:36;29.07;;;27.47;;
18933;SDS011;9599;53.706;10.384;2023-05-10T06:51:04;28.83;;;27.03;;
18933;SDS011;9599;53.706;10.384;2023-05-10T06:53:32;26.17;;;24.67;;
18933;SDS011;9599;53.706;10.384;2023-05-10T06:56:00;27.97;;;26.17;;
18933;SDS011;9599;53.706;10.384;2023-05-10T06:58:29;26.93;;;25.33;;
18933;SDS011;9599;53.706;10.384;2023-05-10T07:01:02;29.17;;;27.37;;
18933;SDS011;9599;53.706;10.384;2023-05-10T07:03:31;27.53;;;25.83;;
18933;SDS011;9599;53.706;10.384;2023-05-10T07:06:00;27.67;;;25.40;;
18933;SDS011;9599;53.706;10.384;2023-05-10T07:08:30;27.70;;;25.73;;
18933;SDS011;9599;53.706;10.384;2023-05-10T07:11:01;29.90;;;27.43;;
18933;SDS011;9599;53.706;10.384;2023-05-10T07:13:30;26.70;;;24.70;;
18933;SDS011;9599;53.706;10.384;2023-05-10T07:15:58;27.23;;;25.57;;
18933;SDS011;9599;53.706;10.384;2023-05-10T07:18:29;28.47;;;26.33;;
18933;SDS011;9599;53.706;10.384;2023-05-10T07:20:57;27.50;;;25.90;;
18933;SDS011;9599;53.706;10.384;2023-05-10T07:23:25;28.90;;;27.10;;
18933;SDS011;9599;53.706;10.384;2023-05-10T07:25:53;29.37;;;27.57;;
18933;SDS011;9599;53.706;10.384;2023-05-10T07:28:23;27.00;;;25.33;;
18933;SDS011;9599;53.706;10.384;2023-05-10T07:30:51;27.17;;;25.57;;
18933;SDS011;9599;53.706;10.384;2023-05-10T07:33:20;27.53;;;25.97;;
18933;SDS011;9599;53.706;10.384;2023-05-10T07:35:49;28.53;;;26.77;;
18933;SDS011;9599;53.706;10.384;2023-05-10T07:38:19;27.33;;;25.73;;
18933;SDS011;9599;53.706;10.384;2023-05-10T07:40:47;26.43;;;24.83;;
18933;SDS011;9599;53.706;10.384;2023-05-10T07:43:15;27.30;;;25.70;;
18933;SDS011;9599;53.706;10.384;2023-05-10T07:45:43;26.47;;;24.90;;
18933;SDS011;9599;53.706;10.384;2023-05-10T07:48:11;27.47;;;25.53;;
18933;SDS011;9599;53.706;10.384;2023-05-10T07:50:39;27.57;;;25.87;;
18933;SDS011;9599;53.706;10.384;2023-05-10T07:53:08;25.60;;;24.00;;
18933;SDS011;9599;53.706;10.384;2023-05-10T07:55:36;26.63;;;25.03;;
18933;SDS011;9599;53.706;10.384;2023-05-10T07:58:04;26.50;;;25.00;;
18933;SDS011;9599;53.706;10.384;2023-05-10T08:00:32;28.07;;;26.17;;
18933;SDS011;9599;53.706;10.384;2023-05-10T08:03:01;26.80;;;25.10;;
18933;SDS011;9599;53.706;10.384;2023-05-10T08:05:29;25.80;;;23.80;;
18933;SDS011;9599;53.706;10.384;2023-05-10T08:07:59;27.93;;;25.63;;
18933;SDS011;9599;53.706;10.384;2023-05-10T08:10:29;29.13;;;27.13;;
18933;SDS011;9599;53.706;10.384;2023-05-10T08:12:57;26.83;;;25.13;;
18933;SDS011;9599;53.706;10.384;2023-05-10T08:15:25;26.57;;;24.53;;
18933;SDS011;9599;53.706;10.384;2023-05-10T08:17:53;26.87;;;24.63;;
18933;SDS011;9599;53.706;10.384;2023-05-10T08:20:21;25.90;;;23.77;;
18933;SDS011;9599;53.706;10.384;2023-05-10T08:22:49;26.50;;;24.67;;
18933;SDS011;9599;53.706;10.384;2023-05-10T08:25:17;27.63;;;25.63;;
18933;SDS011;9599;53.706;10.384;2023-05-10T08:27:47;28.57;;;26.07;;
18933;SDS011;9599;53.706;10.384;2023-05-10T08:30:15;30.27;;;26.77;;
18933;SDS011;9599;53.706;10.384;2023-05-10T08:32:43;26.67;;;24.73;;
18933;SDS011;9599;53.706;10.384;2023-05-10T08:35:11;27.10;;;25.17;;
18933;SDS011;9599;53.706;10.384;2023-05-10T08:37:40;28.97;;;27.17;;
18933;SDS011;9599;53.706;10.384;2023-05-10T08:40:08;28.00;;;26.30;;
18933;SDS011;9599;53.706;10.384;2023-05-10T08:42:39;27.47;;;25.87;;
18933;SDS011;9599;53.706;10.384;2023-05-10T08:45:16;28.40;;;26.70;;
18933;SDS011;9599;53.706;10.384;2023-05-10T08:47:46;29.60;;;27.80;;
18933;SDS011;9599;53.706;10.384;2023-05-10T08:50:14;29.87;;;27.93;;
18933;SDS011;9599;53.706;10.384;2023-05-10T08:52:44;31.53;;;29.70;;
18933;SDS011;9599;53.706;10.384;2023-05-10T08:55:15;30.60;;;28.90;;
18933;SDS011;9599;53.706;10.384;2023-05-10T08:57:43;30.13;;;28.43;;
18933;SDS011;9599;53.706;10.384;2023-05-10T09:00:13;29.40;;;27.80;;
18933;SDS011;9599;53.706;10.384;2023-05-10T09:02:43;29.50;;;27.67;;
18933;SDS011;9599;53.706;10.384;2023-05-10T09:05:12;29.57;;;27.63;;
18933;SDS011;9599;53.706;10.384;2023-05-10T09:07:42;27.00;;;25.50;;
18933;SDS011;9599;53.706;10.384;2023-05-10T09:10:10;29.73;;;27.70;;
18933;SDS011;9599;53.706;10.384;2023-05-10T09:12:40;29.43;;;27.70;;
18933;SDS011;9599;53.706;10.384;2023-05-10T09:15:10;29.17;;;27.17;;
18933;SDS011;9599;53.706;10.384;2023-05-10T09:17:42;28.27;;;26.67;;
18933;SDS011;9599;53.706;10.384;2023-05-10T09:20:12;29.83;;;28.03;;
18933;SDS011;9599;53.706;10.384;2023-05-10T09:22:40;27.63;;;25.97;;
18933;SDS011;9599;53.706;10.384;2023-05-10T09:25:08;30.90;;;29.10;;
18933;SDS011;9599;53.706;10.384;2023-05-10T09:27:38;31.60;;;29.60;;
18933;SDS011;9599;53.706;10.384;2023-05-10T09:30:07;32.23;;;30.43;;
18933;SDS011;9599;53.706;10.384;2023-05-10T09:32:36;32.37;;;30.20;;
18933;SDS011;9599;53.706;10.384;2023-05-10T09:35:10;34.80;;;32.50;;
18933;SDS011;9599;53.706;10.384;2023-05-10T09:37:39;34.63;;;32.83;;
18933;SDS011;9599;53.706;10.384;2023-05-10T09:40:11;34.53;;;32.17;;
18933;SDS011;9599;53.706;10.384;2023-05-10T09:42:40;33.03;;;31.07;;
18933;SDS011;9599;53.706;10.384;2023-05-10T09:45:10;33.50;;;31.43;;
18933;SDS011;9599;53.706;10.384;2023-05-10T09:47:38;31.93;;;30.03;;
18933;SDS011;9599;53.706;10.384;2023-05-10T09:50:07;33.27;;;31.17;;
18933;SDS011;9599;53.706;10.384;2023-05-10T09:52:46;31.60;;;29.40;;
18933;SDS011;9599;53.706;10.384;2023-05-10T09:55:16;30.13;;;28.23;;
18933;SDS011;9599;53.706;10.384;2023-05-10T09:57:45;28.63;;;26.70;;
18933;SDS011;9599;53.706;10.384;2023-05-10T10:00:18;28.07;;;26.40;;
18933;SDS011;9599;53.706;10.384;2023-05-10T10:02:48;27.90;;;26.13;;
18933;SDS011;9599;53.706;10.384;2023-05-10T10:05:22;29.63;;;27.93;;
18933;SDS011;9599;53.706;10.384;2023-05-10T10:07:57;30.40;;;28.43;;
18933;SDS011;9599;53.706;10.384;2023-05-10T10:10:25;30.27;;;28.53;;
18933;SDS011;9599;53.706;10.384;2023-05-10T10:12:54;31.63;;;29.70;;
18933;SDS011;9599;53.706;10.384;2023-05-10T10:15:23;30.60;;;28.63;;
18933;SDS011;9599;53.706;10.384;2023-05-10T10:17:52;27.20;;;25.40;;
18933;SDS011;9599;53.706;10.384;2023-05-10T10:20:21;29.17;;;27.47;;
18933;SDS011;9599;53.706;10.384;2023-05-10T10:22:50;26.87;;;25.30;;
18933;SDS011;9599;53.706;10.384;2023-05-10T10:25:20;29.07;;;27.37;;
18933;SDS011;9599;53.706;10.384;2023-05-10T10:27:54;26.97;;;25.27;;
18933;SDS011;9599;53.706;10.384;2023-05-10T10:30:38;28.67;;;26.87;;
18933;SDS011;9599;53.706;10.384;2023-05-10T10:33:18;28.43;;;26.73;;
18933;SDS011;9599;53.706;10.384;2023-05-10T10:35:58;30.17;;;28.37;;
18933;SDS011;9599;53.706;10.384;2023-05-10T10:38:35;27.73;;;26.13;;
18933;SDS011;9599;53.706;10.384;2023-05-10T10:41:09;29.57;;;27.50;;
18933;SDS011;9599;53.706;10.384;2023-05-10T10:43:38;29.07;;;27.13;;
18933;SDS011;9599;53.706;10.384;2023-05-10T10:46:12;28.77;;;26.80;;
18933;SDS011;9599;53.706;10.384;2023-05-10T10:48:43;27.97;;;26.37;;
18933;SDS011;9599;53.706;10.384;2023-05-10T10:51:16;27.77;;;26.10;;
18933;SDS011;9599;53.706;10.384;2023-05-10T10:53:44;28.23;;;26.47;;
18933;SDS011;9599;53.706;10.384;2023-05-10T10:56:17;26.40;;;24.83;;
18933;SDS011;9599;53.706;10.384;2023-05-10T10:58:51;25.57;;;24.13;;
18933;SDS011;9599;53.706;10.384;2023-05-10T11:01:19;27.27;;;25.57;;
18933;SDS011;9599;53.706;10.384;2023-05-10T11:03:55;26.23;;;24.63;;
18933;SDS011;9599;53.706;10.384;2023-05-10T11:06:46;25.23;;;23.83;;
18933;SDS011;9599;53.706;10.384;2023-05-10T11:09:14;27.50;;;25.57;;
18933;SDS011;9599;53.706;10.384;2023-05-10T11:11:54;25.73;;;24.13;;
18933;SDS011;9599;53.706;10.384;2023-05-10T11:14:22;26.10;;;24.30;;
18933;SDS011;9599;53.706;10.384;2023-05-10T11:16:50;27.17;;;24.90;;
18933;SDS011;9599;53.706;10.384;2023-05-10T11:19:19;27.93;;;26.23;;
18933;SDS011;9599;53.706;10.384;2023-05-10T11:21:47;27.27;;;25.43;;
18933;SDS011;9599;53.706;10.384;2023-05-10T11:24:18;27.73;;;25.83;;
18933;SDS011;9599;53.706;10.384;2023-05-10T11:26:48;27.63;;;25.63;;
18933;SDS011;9599;53.706;10.384;2023-05-10T11:29:19;27.10;;;25.30;;
18933;SDS011;9599;53.706;10.384;2023-05-10T11:31:48;27.37;;;25.63;;
18933;SDS011;9599;53.706;10.384;2023-05-10T11:34:23;26.50;;;24.70;;
18933;SDS011;9599;53.706;10.384;2023-05-10T11:36:52;26.30;;;24.27;;
18933;SDS011;9599;53.706;10.384;2023-05-10T11:39:25;27.83;;;26.03;;
18933;SDS011;9599;53.706;10.384;2023-05-10T11:41:54;28.17;;;26.23;;
18933;SDS011;9599;53.706;10.384;2023-05-10T11:44:23;30.93;;;28.93;;
18933;SDS011;9599;53.706;10.384;2023-05-10T11:46:57;31.63;;;29.27;;
18933;SDS011;9599;53.706;10.384;2023-05-10T11:49:26;31.17;;;28.87;;
18933;SDS011;9599;53.706;10.384;2023-05-10T11:52:03;33.43;;;31.03;;
18933;SDS011;9599;53.706;10.384;2023-05-10T11:54:31;33.20;;;30.90;;
18933;SDS011;9599;53.706;10.384;2023-05-10T11:57:01;34.40;;;32.20;;
18933;SDS011;9599;53.706;10.384;2023-05-10T11:59:30;34.87;;;32.47;;
18933;SDS011;9599;53.706;10.384;2023-05-10T12:01:58;34.50;;;32.20;;
18933;SDS011;9599;53.706;10.384;2023-05-10T12:04:26;32.77;;;30.47;;
18933;SDS011;9599;53.706;10.384;2023-05-10T12:06:56;32.67;;;30.33;;
18933;SDS011;9599;53.706;10.384;2023-05-10T12:09:24;32.13;;;29.83;;
18933;SDS011;9599;53.706;10.384;2023-05-10T12:12:08;34.10;;;31.53;;
18933;SDS011;9599;53.706;10.384;2023-05-10T12:14:38;33.13;;;30.77;;
18933;SDS011;9599;53.706;10.384;2023-05-10T12:17:06;34.63;;;32.33;;
18933;SDS011;9599;53.706;10.384;2023-05-10T12:19:39;35.17;;;32.73;;
18933;SDS011;9599;53.706;10.384;2023-05-10T12:22:07;33.13;;;30.77;;
18933;SDS011;9599;53.706;10.384;2023-05-10T12:24:36;32.67;;;30.27;;
18933;SDS011;9599;53.706;10.384;2023-05-10T12:27:05;32.63;;;29.83;;
18933;SDS011;9599;53.706;10.384;2023-05-10T12:29:54;32.13;;;29.83;;
18933;SDS011;9599;53.706;10.384;2023-05-10T12:32:22;32.47;;;30.13;;
18933;SDS011;9599;53.706;10.384;2023-05-10T12:35:05;32.93;;;30.57;;
18933;SDS011;9599;53.706;10.384;2023-05-10T12:37:34;31.30;;;28.87;;
18933;SDS011;9599;53.706;10.384;2023-05-10T12:40:06;32.77;;;30.47;;
18933;SDS011;9599;53.706;10.384;2023-05-10T12:42:35;32.50;;;30.27;;
18933;SDS011;9599;53.706;10.384;2023-05-10T12:45:05;29.83;;;27.73;;
18933;SDS011;9599;53.706;10.384;2023-05-10T12:47:34;32.00;;;29.50;;
18933;SDS011;9599;53.706;10.384;2023-05-10T12:50:03;32.03;;;29.57;;
18933;SDS011;9599;53.706;10.384;2023-05-10T12:52:32;32.20;;;29.90;;
18933;SDS011;9599;53.706;10.384;2023-05-10T12:55:00;30.87;;;28.60;;
18933;SDS011;9599;53.706;10.384;2023-05-10T12:57:29;29.30;;;27.20;;
18933;SDS011;9599;53.706;10.384;2023-05-10T12:59:57;28.93;;;26.93;;
18933;SDS011;9599;53.706;10.384;2023-05-10T13:02:26;29.43;;;27.33;;
18933;SDS011;9599;53.706;10.384;2023-05-10T13:04:54;28.50;;;26.40;;
18933;SDS011;9599;53.706;10.384;2023-05-10T13:07:22;30.77;;;28.23;;
18933;SDS011;9599;53.706;10.384;2023-05-10T13:09:50;29.50;;;27.30;;
18933;SDS011;9599;53.706;10.384;2023-05-10T13:12:18;27.67;;;25.77;;
18933;SDS011;9599;53.706;10.384;2023-05-10T13:14:47;26.37;;;24.57;;
18933;SDS011;9599;53.706;10.384;2023-05-10T13:17:15;28.77;;;26.63;;
18933;SDS011;9599;53.706;10.384;2023-05-10T13:19:45;26.60;;;24.80;;
18933;SDS011;9599;53.706;10.384;2023-05-10T13:22:12;26.10;;;24.30;;
18933;SDS011;9599;53.706;10.384;2023-05-10T13:24:48;26.97;;;25.23;;
18933;SDS011;9599;53.706;10.384;2023-05-10T13:27:16;27.77;;;25.90;;
18933;SDS011;9599;53.706;10.384;2023-05-10T13:29:44;28.27;;;26.47;;
18933;SDS011;9599;53.706;10.384;2023-05-10T13:32:14;29.87;;;27.83;;
18933;SDS011;9599;53.706;10.384;2023-05-10T13:34:42;26.70;;;24.80;;
18933;SDS011;9599;53.706;10.384;2023-05-10T13:37:13;27.20;;;25.33;;
18933;SDS011;9599;53.706;10.384;2023-05-10T13:39:41;26.73;;;25.03;;
18933;SDS011;9599;53.706;10.384;2023-05-10T13:42:09;29.87;;;27.87;;
18933;SDS011;9599;53.706;10.384;2023-05-10T13:44:37;29.43;;;27.20;;
18933;SDS011;9599;53.706;10.384;2023-05-10T13:47:05;27.03;;;25.23;;
18933;SDS011;9599;53.706;10.384;2023-05-10T13:49:33;27.13;;;25.27;;
18933;SDS011;9599;53.706;10.384;2023-05-10T13:52:01;25.93;;;24.17;;
18933;SDS011;9599;53.706;10.384;2023-05-10T13:54:34;26.00;;;24.40;;
18933;SDS011;9599;53.706;10.384;2023-05-10T13:57:02;26.13;;;24.43;;
18933;SDS011;9599;53.706;10.384;2023-05-10T13:59:30;26.37;;;24.67;;
18933;SDS011;9599;53.706;10.384;2023-05-10T14:01:58;26.40;;;24.80;;
18933;SDS011;9599;53.706;10.384;2023-05-10T14:04:28;25.73;;;24.13;;
18933;SDS011;9599;53.706;10.384;2023-05-10T14:06:56;25.57;;;23.97;;
18933;SDS011;9599;53.706;10.384;2023-05-10T14:09:24;26.70;;;24.93;;
18933;SDS011;9599;53.706;10.384;2023-05-10T14:11:53;26.60;;;24.80;;
18933;SDS011;9599;53.706;10.384;2023-05-10T14:14:22;25.47;;;23.77;;
18933;SDS011;9599;53.706;10.384;2023-05-10T14:16:51;25.27;;;23.87;;
18933;SDS011;9599;53.706;10.384;2023-05-10T14:19:19;25.07;;;23.57;;
18933;SDS011;9599;53.706;10.384;2023-05-10T14:21:47;24.90;;;23.30;;
18933;SDS011;9599;53.706;10.384;2023-05-10T14:24:15;25.00;;;23.40;;
18933;SDS011;9599;53.706;10.384;2023-05-10T14:26:43;23.57;;;22.27;;
18933;SDS011;9599;53.706;10.384;2023-05-10T14:29:12;23.50;;;22.13;;
18933;SDS011;9599;53.706;10.384;2023-05-10T14:31:40;26.03;;;24.00;;
18933;SDS011;9599;53.706;10.384;2023-05-10T14:34:08;25.10;;;23.53;;
18933;SDS011;9599;53.706;10.384;2023-05-10T14:36:36;23.27;;;21.97;;